createdAt,value
2023-03-07T00:01:08.854Z,-88
2023-03-07T00:03:36.899Z,-87
2023-03-07T00:06:06.785Z,-87
2023-03-07T00:08:34.043Z,-87
2023-03-07T00:11:02.527Z,-86
2023-03-07T00:13:33.480Z,-87
2023-03-07T00:16:14.829Z,-86
2023-03-07T00:18:42.430Z,-86
2023-03-07T00:21:11.477Z,-86
2023-03-07T00:23:40.686Z,-87
2023-03-07T00:26:12.131Z,-88
2023-03-07T00:28:39.095Z,-87
2023-03-07T00:31:08.410Z,-87
2023-03-07T00:33:35.703Z,-86
2023-03-07T00:36:08.715Z,-87
2023-03-07T00:38:35.888Z,-89
2023-03-07T00:41:08.214Z,-87
2023-03-07T00:43:35.432Z,-86
2023-03-07T00:46:03.090Z,-87
2023-03-07T00:48:30.728Z,-88
2023-03-07T00:50:57.725Z,-88
2023-03-07T00:53:25.124Z,-86
2023-03-07T00:55:55.447Z,-87
2023-03-07T00:58:22.427Z,-86
2023-03-07T01:00:49.369Z,-86
2023-03-07T01:03:15.900Z,-87
2023-03-07T01:05:42.448Z,-86
2023-03-07T01:08:09.485Z,-85
2023-03-07T01:10:36.107Z,-86
2023-03-07T01:13:03.119Z,-87
2023-03-07T01:15:29.990Z,-87
2023-03-07T01:17:56.942Z,-87
2023-03-07T01:20:23.807Z,-85
2023-03-07T01:22:50.388Z,-86
2023-03-07T01:25:16.988Z,-87
2023-03-07T01:27:43.639Z,-86
2023-03-07T01:30:10.788Z,-86
2023-03-07T01:32:37.355Z,-87
2023-03-07T01:35:05.097Z,-86
2023-03-07T01:37:31.733Z,-87
2023-03-07T01:39:58.273Z,-85
2023-03-07T01:42:24.856Z,-85
2023-03-07T01:45:02.915Z,-86
2023-03-07T01:47:29.502Z,-88
2023-03-07T01:49:56.886Z,-87
2023-03-07T01:52:28.138Z,-88
2023-03-07T01:54:58.518Z,-86
2023-03-07T01:57:31.838Z,-86
2023-03-07T02:00:01.802Z,-86
2023-03-07T02:02:29.920Z,-81
2023-03-07T02:05:38.201Z,-82
2023-03-07T02:08:08.598Z,-83
2023-03-07T02:10:36.804Z,-81
2023-03-07T02:13:06.056Z,-81
2023-03-07T02:15:34.669Z,-83
2023-03-07T02:18:02.462Z,-83
2023-03-07T02:20:42.688Z,-82
2023-03-07T02:23:13.951Z,-81
2023-03-07T02:25:52.636Z,-81
2023-03-07T02:28:19.395Z,-82
2023-03-07T02:30:57.184Z,-84
2023-03-07T02:33:26.766Z,-82
2023-03-07T02:35:56.838Z,-82
2023-03-07T02:38:25.066Z,-86
2023-03-07T02:40:54.871Z,-86
2023-03-07T02:43:22.909Z,-87
2023-03-07T02:45:50.696Z,-86
2023-03-07T02:48:17.441Z,-87
2023-03-07T02:50:44.140Z,-87
2023-03-07T02:53:10.887Z,-85
2023-03-07T02:55:37.720Z,-86
2023-03-07T02:58:04.381Z,-86
2023-03-07T03:00:31.532Z,-89
2023-03-07T03:02:58.484Z,-87
2023-03-07T03:05:25.112Z,-89
2023-03-07T03:07:52.041Z,-87
2023-03-07T03:10:18.810Z,-90
2023-03-07T03:12:45.600Z,-89
2023-03-07T03:15:12.669Z,-89
2023-03-07T03:17:39.439Z,-89
2023-03-07T03:20:07.784Z,-88
2023-03-07T03:22:34.512Z,-88
2023-03-07T03:25:01.196Z,-89
2023-03-07T03:27:27.743Z,-89
2023-03-07T03:29:55.098Z,-88
2023-03-07T03:32:21.896Z,-87
2023-03-07T03:34:48.495Z,-89
2023-03-07T03:37:17.450Z,-88
2023-03-07T03:39:44.045Z,-90
2023-03-07T03:42:10.593Z,-85
2023-03-07T03:44:39.552Z,-85
2023-03-07T03:47:06.258Z,-85
2023-03-07T03:49:33.173Z,-85
2023-03-07T03:51:59.796Z,-85
2023-03-07T03:54:26.412Z,-86
2023-03-07T03:56:55.697Z,-85
2023-03-07T03:59:22.708Z,-86
2023-03-07T04:01:50.344Z,-87
2023-03-07T04:04:17.137Z,-87
2023-03-07T04:06:43.809Z,-85
2023-03-07T04:09:10.961Z,-84
2023-03-07T04:11:37.644Z,-85
2023-03-07T04:14:04.508Z,-85
2023-03-07T04:16:31.266Z,-85
2023-03-07T04:18:58.443Z,-84
2023-03-07T04:21:26.041Z,-85
2023-03-07T04:23:55.738Z,-85
2023-03-07T04:26:23.267Z,-85
2023-03-07T04:28:50.013Z,-85
2023-03-07T04:31:22.664Z,-84
2023-03-07T04:33:50.774Z,-86
2023-03-07T04:36:17.880Z,-85
2023-03-07T04:38:46.129Z,-85
2023-03-07T04:41:30.786Z,-85
2023-03-07T04:43:57.496Z,-85
2023-03-07T04:46:26.242Z,-84
2023-03-07T04:48:52.999Z,-85
2023-03-07T04:51:19.662Z,-85
2023-03-07T04:53:48.789Z,-85
2023-03-07T04:56:16.312Z,-85
2023-03-07T04:58:44.111Z,-84
2023-03-07T05:01:11.119Z,-86
2023-03-07T05:03:37.766Z,-85
2023-03-07T05:06:07.403Z,-86
2023-03-07T05:08:34.957Z,-85
2023-03-07T05:11:01.846Z,-85
2023-03-07T05:13:28.473Z,-84
2023-03-07T05:15:57.310Z,-85
2023-03-07T05:18:24.473Z,-85
2023-03-07T05:20:51.736Z,-84
2023-03-07T05:23:20.304Z,-85
2023-03-07T05:25:47.160Z,-86
2023-03-07T05:28:14.796Z,-86
2023-03-07T05:30:41.487Z,-84
2023-03-07T05:33:08.076Z,-84
2023-03-07T05:35:34.908Z,-84
2023-03-07T05:38:01.507Z,-84
2023-03-07T05:40:28.218Z,-85
2023-03-07T05:42:54.857Z,-85
2023-03-07T05:45:21.621Z,-85
2023-03-07T05:47:48.249Z,-85
2023-03-07T05:50:15.035Z,-85
2023-03-07T05:52:42.131Z,-84
2023-03-07T05:55:09.263Z,-85
2023-03-07T05:57:35.991Z,-84
2023-03-07T06:00:02.730Z,-85
2023-03-07T06:02:29.346Z,-85
2023-03-07T06:04:55.939Z,-84
2023-03-07T06:07:22.737Z,-85
2023-03-07T06:09:49.376Z,-88
2023-03-07T06:12:15.989Z,-88
2023-03-07T06:14:42.654Z,-88
2023-03-07T06:17:09.217Z,-88
2023-03-07T06:19:35.871Z,-87
2023-03-07T06:22:02.537Z,-87
2023-03-07T06:24:29.160Z,-88
2023-03-07T06:26:55.873Z,-87
2023-03-07T06:29:22.560Z,-87
2023-03-07T06:31:49.310Z,-86
2023-03-07T06:34:16.139Z,-90
2023-03-07T06:36:42.874Z,-87
2023-03-07T06:39:09.445Z,-86
2023-03-07T06:41:36.242Z,-88
2023-03-07T06:44:02.930Z,-88
2023-03-07T06:46:29.717Z,-88
2023-03-07T06:48:56.578Z,-89
2023-03-07T06:51:23.165Z,-88
2023-03-07T06:53:49.849Z,-87
2023-03-07T06:56:16.608Z,-88
2023-03-07T06:58:43.237Z,-88
2023-03-07T07:01:19.332Z,-86
2023-03-07T07:03:45.949Z,-87
2023-03-07T07:06:12.869Z,-88
2023-03-07T07:08:39.647Z,-86
2023-03-07T07:11:08.719Z,-88
2023-03-07T07:13:35.396Z,-87
2023-03-07T07:16:07.080Z,-87
2023-03-07T07:18:34.228Z,-86
2023-03-07T07:21:01.405Z,-85
2023-03-07T07:23:28.399Z,-86
2023-03-07T07:25:55.638Z,-86
2023-03-07T07:28:23.039Z,-87
2023-03-07T07:30:49.675Z,-86
2023-03-07T07:33:16.580Z,-88
2023-03-07T07:35:44.169Z,-85
2023-03-07T07:38:10.914Z,-86
2023-03-07T07:40:37.586Z,-87
2023-03-07T07:43:04.427Z,-88
2023-03-07T07:45:31.071Z,-86
2023-03-07T07:47:57.710Z,-87
2023-03-07T07:50:24.715Z,-87
2023-03-07T07:52:53.380Z,-86
2023-03-07T07:55:20.189Z,-88
2023-03-07T07:57:46.807Z,-85
2023-03-07T08:00:14.391Z,-85
2023-03-07T08:02:41.188Z,-86
2023-03-07T08:05:10.388Z,-85
2023-03-07T08:07:39.513Z,-86
2023-03-07T08:10:06.764Z,-85
2023-03-07T08:12:33.751Z,-87
2023-03-07T08:15:00.598Z,-85
2023-03-07T08:17:29.761Z,-87
2023-03-07T08:20:01.698Z,-86
2023-03-07T08:22:28.518Z,-87
2023-03-07T08:24:55.155Z,-86
2023-03-07T08:27:21.829Z,-85
2023-03-07T08:29:49.685Z,-86
2023-03-07T08:32:17.062Z,-87
2023-03-07T08:34:43.694Z,-84
2023-03-07T08:37:10.636Z,-87
2023-03-07T08:39:37.257Z,-81
2023-03-07T08:42:04.067Z,-83
2023-03-07T08:44:30.743Z,-80
2023-03-07T08:46:57.293Z,-83
2023-03-07T08:49:24.353Z,-84
2023-03-07T08:51:50.978Z,-80
2023-03-07T08:54:17.605Z,-82
2023-03-07T08:56:44.259Z,-80
2023-03-07T08:59:10.845Z,-81
2023-03-07T09:01:38.704Z,-80
2023-03-07T09:04:06.124Z,-79
2023-03-07T09:06:32.664Z,-80
2023-03-07T09:08:59.267Z,-80
2023-03-07T09:11:26.732Z,-81
2023-03-07T09:13:53.509Z,-82
2023-03-07T09:16:21.774Z,-81
2023-03-07T09:18:48.385Z,-81
2023-03-07T09:21:15.142Z,-81
2023-03-07T09:23:43.261Z,-83
2023-03-07T09:26:10.518Z,-80
2023-03-07T09:28:37.096Z,-79
2023-03-07T09:31:08.761Z,-82
2023-03-07T09:33:35.463Z,-81
2023-03-07T09:36:11.995Z,-81
2023-03-07T09:38:40.123Z,-83
2023-03-07T09:41:40.464Z,-82
2023-03-07T09:44:28.454Z,-79
2023-03-07T09:47:04.286Z,-81
2023-03-07T09:49:40.364Z,-83
2023-03-07T09:52:14.062Z,-81
2023-03-07T09:54:45.748Z,-81
2023-03-07T09:57:19.098Z,-80
2023-03-07T10:00:29.800Z,-83
2023-03-07T10:03:09.700Z,-81
2023-03-07T10:05:43.266Z,-84
2023-03-07T10:08:17.554Z,-81
2023-03-07T10:10:57.246Z,-83
2023-03-07T10:13:42.626Z,-81
2023-03-07T10:16:15.584Z,-82
2023-03-07T10:18:53.323Z,-81
2023-03-07T10:21:43.875Z,-81
2023-03-07T10:24:44.413Z,-81
2023-03-07T10:27:13.301Z,-80
2023-03-07T10:29:52.432Z,-81
2023-03-07T10:32:21.193Z,-81
2023-03-07T10:34:59.376Z,-84
2023-03-07T10:37:40.932Z,-81
2023-03-07T10:40:31.245Z,-81
2023-03-07T10:42:59.580Z,-80
2023-03-07T10:45:30.404Z,-83
2023-03-07T10:48:05.173Z,-82
2023-03-07T10:50:49.707Z,-81
2023-03-07T10:53:28.813Z,-79
2023-03-07T10:56:12.758Z,-81
2023-03-07T10:58:39.547Z,-82
2023-03-07T11:01:08.911Z,-81
2023-03-07T11:03:51.543Z,-81
2023-03-07T11:06:28.896Z,-82
2023-03-07T11:08:56.518Z,-80
2023-03-07T11:11:31.412Z,-80
2023-03-07T11:14:11.797Z,-81
2023-03-07T11:16:54.274Z,-80
2023-03-07T11:19:52.789Z,-84
2023-03-07T11:22:30.242Z,-82
2023-03-07T11:25:07.493Z,-81
2023-03-07T11:27:55.680Z,-82
2023-03-07T11:30:28.516Z,-82
2023-03-07T11:33:35.518Z,-83
2023-03-07T11:36:04.254Z,-82
2023-03-07T11:38:42.529Z,-82
2023-03-07T11:41:22.537Z,-81
2023-03-07T11:44:20.547Z,-82
2023-03-07T11:47:16.111Z,-80
2023-03-07T11:50:01.073Z,-80
2023-03-07T11:52:53.100Z,-80
2023-03-07T11:55:22.839Z,-81
2023-03-07T11:58:16.547Z,-81
2023-03-07T12:00:54.492Z,-80
2023-03-07T12:03:20.981Z,-80
2023-03-07T12:06:20.009Z,-82
2023-03-07T12:09:01.709Z,-80
2023-03-07T12:11:37.482Z,-79
2023-03-07T12:14:04.101Z,-79
2023-03-07T12:16:53.977Z,-80
2023-03-07T12:19:51.650Z,-82
2023-03-07T12:22:30.269Z,-80
2023-03-07T12:25:16.954Z,-81
2023-03-07T12:27:49.706Z,-82
2023-03-07T12:30:25.929Z,-83
2023-03-07T12:32:53.817Z,-81
2023-03-07T12:35:31.771Z,-81
2023-03-07T12:38:09.648Z,-81
2023-03-07T12:40:47.272Z,-82
2023-03-07T12:43:21.126Z,-82
2023-03-07T12:46:09.153Z,-82
2023-03-07T12:48:46.456Z,-81
2023-03-07T12:51:31.346Z,-80
2023-03-07T12:54:08.916Z,-80
2023-03-07T12:56:56.686Z,-81
2023-03-07T12:59:23.489Z,-80
2023-03-07T13:02:01.867Z,-81
2023-03-07T13:04:34.177Z,-82
2023-03-07T13:07:08.738Z,-82
2023-03-07T13:09:39.328Z,-82
2023-03-07T13:12:16.354Z,-80
2023-03-07T13:14:45.378Z,-82
2023-03-07T13:17:35.522Z,-82
2023-03-07T13:20:32.010Z,-81
2023-03-07T13:23:10.973Z,-82
2023-03-07T13:25:48.081Z,-82
2023-03-07T13:28:45.636Z,-82
2023-03-07T13:31:27.344Z,-81
2023-03-07T13:33:54.042Z,-81
2023-03-07T13:36:38.788Z,-82
2023-03-07T13:39:35.158Z,-82
2023-03-07T13:42:01.869Z,-82
2023-03-07T13:44:37.847Z,-83
2023-03-07T13:47:05.360Z,-80
2023-03-07T13:49:40.885Z,-80
2023-03-07T13:52:24.081Z,-82
2023-03-07T13:54:51.923Z,-82
2023-03-07T13:57:21.462Z,-81
2023-03-07T13:59:50.136Z,-81
2023-03-07T14:02:18.387Z,-81
2023-03-07T14:04:55.967Z,-83
2023-03-07T14:07:51.752Z,-83
2023-03-07T14:10:23.138Z,-82
2023-03-07T14:13:14.808Z,-83
2023-03-07T14:16:11.821Z,-82
2023-03-07T14:19:19.854Z,-86
2023-03-07T14:22:10.234Z,-82
2023-03-07T14:24:55.164Z,-82
2023-03-07T14:27:21.778Z,-83
2023-03-07T14:29:57.073Z,-83
2023-03-07T14:32:30.159Z,-84
2023-03-07T14:34:58.378Z,-83
2023-03-07T14:37:27.736Z,-84
2023-03-07T14:40:00.162Z,-82
2023-03-07T14:42:45.130Z,-85
2023-03-07T14:45:20.629Z,-83
2023-03-07T14:47:50.724Z,-84
2023-03-07T14:50:26.041Z,-80
2023-03-07T14:53:27.239Z,-82
2023-03-07T14:55:55.283Z,-82
2023-03-07T14:58:26.664Z,-83
2023-03-07T15:01:16.085Z,-83
2023-03-07T15:03:54.285Z,-84
2023-03-07T15:06:23.998Z,-83
2023-03-07T15:08:52.408Z,-82
2023-03-07T15:11:21.760Z,-82
2023-03-07T15:14:02.157Z,-81
2023-03-07T15:16:37.572Z,-83
2023-03-07T15:19:09.222Z,-83
2023-03-07T15:21:40.156Z,-83
2023-03-07T15:24:18.555Z,-83
2023-03-07T15:26:54.214Z,-82
2023-03-07T15:29:24.145Z,-81
2023-03-07T15:32:00.437Z,-82
2023-03-07T15:34:35.464Z,-81
2023-03-07T15:37:25.065Z,-81
2023-03-07T15:40:06.960Z,-81
2023-03-07T15:42:34.892Z,-81
2023-03-07T15:45:03.980Z,-82
2023-03-07T15:47:32.050Z,-82
2023-03-07T15:50:04.963Z,-81
2023-03-07T15:52:34.943Z,-81
2023-03-07T15:55:08.320Z,-82
2023-03-07T15:57:48.898Z,-81
2023-03-07T16:00:20.206Z,-82
2023-03-07T16:02:48.703Z,-81
2023-03-07T16:05:24.369Z,-81
2023-03-07T16:07:53.399Z,-82
2023-03-07T16:10:21.393Z,-81
2023-03-07T16:12:49.706Z,-82
2023-03-07T16:15:17.906Z,-81
2023-03-07T16:17:45.383Z,-81
2023-03-07T16:20:16.617Z,-81
2023-03-07T16:22:44.522Z,-81
2023-03-07T16:25:11.981Z,-81
2023-03-07T16:27:39.205Z,-80
2023-03-07T16:30:18.035Z,-82
2023-03-07T16:32:44.812Z,-81
2023-03-07T16:35:24.609Z,-81
2023-03-07T16:37:51.832Z,-82
2023-03-07T16:40:20.201Z,-79
2023-03-07T16:42:48.359Z,-79
2023-03-07T16:45:20.205Z,-80
2023-03-07T16:47:47.751Z,-81
2023-03-07T16:50:19.088Z,-83
2023-03-07T16:52:45.693Z,-83
2023-03-07T16:55:14.426Z,-80
2023-03-07T16:57:51.221Z,-83
2023-03-07T17:00:21.342Z,-81
2023-03-07T17:02:53.102Z,-80
2023-03-07T17:05:25.506Z,-78
2023-03-07T17:07:53.514Z,-81
2023-03-07T17:10:20.649Z,-80
2023-03-07T17:12:49.448Z,-81
2023-03-07T17:15:21.866Z,-79
2023-03-07T17:17:48.809Z,-80
2023-03-07T17:20:22.925Z,-82
2023-03-07T17:22:54.243Z,-80
2023-03-07T17:25:22.198Z,-79
2023-03-07T17:27:53.569Z,-81
2023-03-07T17:30:23.610Z,-80
2023-03-07T17:32:52.673Z,-80
2023-03-07T17:35:19.672Z,-81
2023-03-07T17:37:46.862Z,-81
2023-03-07T17:40:14.005Z,-82
2023-03-07T17:42:42.354Z,-82
2023-03-07T17:45:11.306Z,-85
2023-03-07T17:47:38.422Z,-81
2023-03-07T17:50:07.392Z,-81
2023-03-07T17:52:34.888Z,-81
2023-03-07T17:55:01.984Z,-81
2023-03-07T17:57:28.869Z,-81
2023-03-07T17:59:55.577Z,-79
2023-03-07T18:02:22.445Z,-80
2023-03-07T18:04:49.216Z,-80
2023-03-07T18:07:18.325Z,-82
2023-03-07T18:09:45.332Z,-81
2023-03-07T18:12:11.957Z,-82
2023-03-07T18:14:38.585Z,-81
2023-03-07T18:17:05.301Z,-83
2023-03-07T18:19:32.498Z,-80
2023-03-07T18:21:59.166Z,-82
2023-03-07T18:24:29.073Z,-81
2023-03-07T18:26:59.152Z,-82
2023-03-07T18:29:26.855Z,-82
2023-03-07T18:31:53.473Z,-83
2023-03-07T18:34:20.806Z,-80
2023-03-07T18:36:51.771Z,-80
2023-03-07T18:39:19.028Z,-81
2023-03-07T18:41:45.856Z,-80
2023-03-07T18:44:12.407Z,-82
2023-03-07T18:46:39.088Z,-81
2023-03-07T18:49:05.665Z,-82
2023-03-07T18:51:32.558Z,-81
2023-03-07T18:54:01.198Z,-81
2023-03-07T18:56:28.934Z,-84
2023-03-07T18:58:58.962Z,-82
2023-03-07T19:01:34.091Z,-80
2023-03-07T19:04:03.484Z,-78
2023-03-07T19:06:39.683Z,-82
2023-03-07T19:09:07.903Z,-81
2023-03-07T19:11:36.055Z,-81
2023-03-07T19:14:02.658Z,-81
2023-03-07T19:16:29.575Z,-81
2023-03-07T19:18:56.923Z,-82
2023-03-07T19:21:25.584Z,-80
2023-03-07T19:23:53.410Z,-81
2023-03-07T19:26:21.459Z,-76
2023-03-07T19:28:50.638Z,-81
2023-03-07T19:31:20.678Z,-79
2023-03-07T19:33:49.545Z,-79
2023-03-07T19:36:27.672Z,-80
2023-03-07T19:38:56.438Z,-81
2023-03-07T19:41:25.219Z,-83
2023-03-07T19:43:52.533Z,-79
2023-03-07T19:46:20.663Z,-80
2023-03-07T19:48:47.813Z,-79
2023-03-07T19:51:19.590Z,-80
2023-03-07T19:53:47.334Z,-80
2023-03-07T19:56:19.305Z,-81
2023-03-07T19:58:45.881Z,-81
2023-03-07T20:01:15.610Z,-83
2023-03-07T20:03:42.568Z,-82
2023-03-07T20:06:14.167Z,-81
2023-03-07T20:08:40.786Z,-81
2023-03-07T20:11:21.581Z,-81
2023-03-07T20:13:50.689Z,-81
2023-03-07T20:16:19.381Z,-81
2023-03-07T20:18:50.535Z,-80
2023-03-07T20:21:17.978Z,-82
2023-03-07T20:23:46.246Z,-82
2023-03-07T20:26:15.884Z,-80
2023-03-07T20:28:42.581Z,-82
2023-03-07T20:31:10.547Z,-82
2023-03-07T20:33:38.903Z,-82
2023-03-07T20:36:15.563Z,-84
2023-03-07T20:41:20.910Z,-74
2023-03-07T20:43:48.764Z,-74
2023-03-07T20:46:16.499Z,-78
2023-03-07T20:48:44.553Z,-74
2023-03-07T20:51:20.910Z,-74
2023-03-07T20:53:52.920Z,-74
2023-03-07T20:56:20.669Z,-73
2023-03-07T20:58:48.764Z,-72
2023-03-07T21:01:17.325Z,-74
2023-03-07T21:03:44.046Z,-76
2023-03-07T21:06:11.033Z,-73
2023-03-07T21:08:38.453Z,-73
2023-03-07T21:11:10.919Z,-74
2023-03-07T21:13:42.430Z,-73
2023-03-07T21:16:12.199Z,-75
2023-03-07T21:18:38.932Z,-72
2023-03-07T21:21:08.614Z,-74
2023-03-07T21:23:35.423Z,-73
2023-03-07T21:26:07.442Z,-74
2023-03-07T21:28:34.809Z,-73
2023-03-07T21:31:14.448Z,-73
2023-03-07T21:33:43.545Z,-74
2023-03-07T21:36:13.849Z,-70
2023-03-07T21:38:41.664Z,-71
2023-03-07T21:41:08.610Z,-71
2023-03-07T21:43:35.618Z,-71
2023-03-07T21:46:15.201Z,-76
2023-03-07T21:48:42.495Z,-76
2023-03-07T21:51:09.626Z,-77
2023-03-07T21:53:36.760Z,-76
2023-03-07T21:56:09.832Z,-74
2023-03-07T21:58:37.054Z,-79
2023-03-07T22:01:11.996Z,-74
2023-03-07T22:03:39.057Z,-73
2023-03-07T22:06:07.370Z,-73
2023-03-07T22:08:34.283Z,-74
2023-03-07T22:11:03.490Z,-73
2023-03-07T22:13:32.880Z,-72
2023-03-07T22:16:01.327Z,-73
2023-03-07T22:18:28.197Z,-72
2023-03-07T22:20:55.781Z,-73
2023-03-07T22:23:23.301Z,-73
2023-03-07T22:25:49.823Z,-70
2023-03-07T22:28:19.484Z,-73
2023-03-07T22:30:47.148Z,-72
2023-03-07T22:33:13.643Z,-72
2023-03-07T22:35:40.268Z,-72
2023-03-07T22:38:06.957Z,-72
2023-03-07T22:40:33.464Z,-73
2023-03-07T22:42:59.976Z,-73
2023-03-07T22:45:26.501Z,-73
2023-03-07T22:47:52.961Z,-73
2023-03-07T22:50:20.066Z,-73
2023-03-07T22:52:46.578Z,-73
2023-03-07T22:55:13.103Z,-72
2023-03-07T22:57:39.630Z,-71
2023-03-07T23:00:06.767Z,-72
2023-03-07T23:02:33.235Z,-73
2023-03-07T23:05:00.137Z,-72
2023-03-07T23:07:26.642Z,-75
2023-03-07T23:09:53.128Z,-73
2023-03-07T23:12:19.595Z,-73
2023-03-07T23:14:46.124Z,-72
2023-03-07T23:17:12.709Z,-72
2023-03-07T23:19:39.406Z,-73
2023-03-07T23:22:06.919Z,-74
2023-03-07T23:24:33.422Z,-73
2023-03-07T23:26:59.917Z,-72
2023-03-07T23:29:26.470Z,-73
2023-03-07T23:31:53.118Z,-74
2023-03-07T23:34:20.763Z,-72
2023-03-07T23:36:47.977Z,-74
2023-03-07T23:39:15.732Z,-72
2023-03-07T23:41:42.174Z,-72
2023-03-07T23:44:09.944Z,-73
2023-03-07T23:46:36.447Z,-72
2023-03-07T23:49:03.124Z,-73
2023-03-07T23:51:29.711Z,-73
2023-03-07T23:53:56.841Z,-72
2023-03-07T23:56:23.389Z,-72
2023-03-07T23:58:51.542Z,-73
